Skip Navigation LinksHome page > Weather > Current weather Skip Navigation Links

Current Weather

Central Park, New York

For information only: do not use for flight planning or navigation.
Latest weather
Observation time Friday, October 31, 2014 6:51 AM EDT
Local time Friday, October 31, 2014 7:06 AM EDT
Flight conditions Visual Meteorological Conditions
Winds
Wind direction variable
Wind speed 6 mph
Visibility 10 mi.
Sky condition
Ceiling 4,600 ft. overcast
Cloud layer overcast 4,600 ft.
Temperature 47°F
Dewpoint 32°F
Altimeter 30.04 in.Hg
Derived measurements
Relative humidity 56%
Wind chill 44°F
Density altitude -689 ft.
Sea-level pressure 30.01 in.Hg
Remarks
Fully automated report.
System requires maintenance.
Automated weather observing station with precipitation discriminator.
METAR KNYC 311051Z AUTO VRB05KT 10SM OVC046 08/00 A3004 RMK AO2 SLP164 T00830000 $

Settings

Location code

InnerDrive.Weather 4.0.5399.0 Release CLR 4.0.30319.34014
Copyright ©2014 Inner Drive Technology. All rights reserved. Portions Copyright ©1986-2014 David Braverman.

Find weather

Site navigation


Skip Navigation Links

Place info

Page info

PayPal - The safer, easier way to pay online!

Return home.

Copyright ©2014 Inner Drive Technology. Purveyors of fine, hand-crafted computer software. Page printed 2014-10-31T11:06:50 UTC.